sensor_id;sensor_type;location;lat;lon;timestamp;pressure;altitude;pressure_sealevel;temperature;humidity
84108;BME280;74203;50.730;1.626;2023-12-04T00:01:54;99630.41;;;3.15;66.74
84108;BME280;74203;50.730;1.626;2023-12-04T00:04:03;99618.94;;;3.29;65.63
84108;BME280;74203;50.730;1.626;2023-12-04T00:06:13;99611.97;;;3.28;67.00
84108;BME280;74203;50.730;1.626;2023-12-04T00:08:20;99587.00;;;3.21;65.09
84108;BME280;74203;50.730;1.626;2023-12-04T00:10:28;99593.66;;;3.25;65.30
84108;BME280;74203;50.730;1.626;2023-12-04T00:12:35;99590.09;;;3.33;65.62
84108;BME280;74203;50.730;1.626;2023-12-04T00:14:43;99588.87;;;3.36;65.52
84108;BME280;74203;50.730;1.626;2023-12-04T00:16:50;99585.38;;;3.20;67.36
84108;BME280;74203;50.730;1.626;2023-12-04T00:18:58;99580.03;;;3.20;66.97
84108;BME280;74203;50.730;1.626;2023-12-04T00:21:06;99583.63;;;3.27;65.12
84108;BME280;74203;50.730;1.626;2023-12-04T00:23:14;99573.50;;;3.23;66.12
84108;BME280;74203;50.730;1.626;2023-12-04T00:25:21;99584.03;;;3.16;66.14
84108;BME280;74203;50.730;1.626;2023-12-04T00:27:29;99578.00;;;3.22;65.55
84108;BME280;74203;50.730;1.626;2023-12-04T00:29:36;99584.41;;;3.13;65.99
84108;BME280;74203;50.730;1.626;2023-12-04T00:31:44;99568.22;;;3.15;65.17
84108;BME280;74203;50.730;1.626;2023-12-04T00:33:51;99562.50;;;3.03;66.26
84108;BME280;74203;50.730;1.626;2023-12-04T00:35:59;99564.25;;;3.11;65.46
84108;BME280;74203;50.730;1.626;2023-12-04T00:38:06;99566.03;;;3.18;67.35
84108;BME280;74203;50.730;1.626;2023-12-04T00:40:14;99549.03;;;3.19;65.73
84108;BME280;74203;50.730;1.626;2023-12-04T00:42:22;99551.03;;;3.17;66.38
84108;BME280;74203;50.730;1.626;2023-12-04T00:44:29;99546.53;;;3.18;66.71
84108;BME280;74203;50.730;1.626;2023-12-04T00:46:37;99544.94;;;3.09;65.59
84108;BME280;74203;50.730;1.626;2023-12-04T00:48:44;99546.38;;;3.19;65.58
84108;BME280;74203;50.730;1.626;2023-12-04T00:50:54;99523.44;;;3.10;66.20
84108;BME280;74203;50.730;1.626;2023-12-04T00:53:01;99527.59;;;3.13;65.79
84108;BME280;74203;50.730;1.626;2023-12-04T00:55:10;99522.78;;;3.08;66.38
84108;BME280;74203;50.730;1.626;2023-12-04T00:57:18;99508.72;;;3.14;66.74
84108;BME280;74203;50.730;1.626;2023-12-04T00:59:26;99520.22;;;3.15;65.97
84108;BME280;74203;50.730;1.626;2023-12-04T01:01:35;99508.72;;;3.14;65.22
84108;BME280;74203;50.730;1.626;2023-12-04T01:03:42;99506.78;;;3.08;66.23
84108;BME280;74203;50.730;1.626;2023-12-04T01:05:50;99505.69;;;3.17;65.81
84108;BME280;74203;50.730;1.626;2023-12-04T01:07:57;99494.31;;;3.23;65.32
84108;BME280;74203;50.730;1.626;2023-12-04T01:10:06;99482.56;;;3.33;64.04
84108;BME280;74203;50.730;1.626;2023-12-04T01:12:14;99493.47;;;3.38;64.78
84108;BME280;74203;50.730;1.626;2023-12-04T01:14:22;99490.81;;;3.38;64.74
84108;BME280;74203;50.730;1.626;2023-12-04T01:16:29;99475.91;;;3.28;65.28
84108;BME280;74203;50.730;1.626;2023-12-04T01:18:37;99469.28;;;3.24;64.85
84108;BME280;74203;50.730;1.626;2023-12-04T01:20:45;99476.94;;;3.27;65.03
84108;BME280;74203;50.730;1.626;2023-12-04T01:22:52;99476.56;;;3.31;64.88
84108;BME280;74203;50.730;1.626;2023-12-04T01:25:00;99469.94;;;3.26;65.18
84108;BME280;74203;50.730;1.626;2023-12-04T01:27:07;99460.75;;;3.29;64.38
84108;BME280;74203;50.730;1.626;2023-12-04T01:29:15;99465.25;;;3.28;64.74
84108;BME280;74203;50.730;1.626;2023-12-04T01:31:22;99465.25;;;3.28;64.89
84108;BME280;74203;50.730;1.626;2023-12-04T01:33:30;99461.13;;;3.26;64.84
84108;BME280;74203;50.730;1.626;2023-12-04T01:35:37;99460.28;;;3.25;63.89
84108;BME280;74203;50.730;1.626;2023-12-04T01:37:45;99464.53;;;3.35;64.07
84108;BME280;74203;50.730;1.626;2023-12-04T01:39:52;99449.25;;;3.28;64.12
84108;BME280;74203;50.730;1.626;2023-12-04T01:41:59;99452.37;;;3.32;63.76
84108;BME280;74203;50.730;1.626;2023-12-04T01:44:07;99450.16;;;3.36;63.83
84108;BME280;74203;50.730;1.626;2023-12-04T01:46:18;99445.84;;;3.35;63.79
84108;BME280;74203;50.730;1.626;2023-12-04T01:48:27;99439.59;;;3.42;64.12
84108;BME280;74203;50.730;1.626;2023-12-04T01:50:36;99437.09;;;3.41;63.29
84108;BME280;74203;50.730;1.626;2023-12-04T01:52:44;99424.94;;;3.38;62.80
84108;BME280;74203;50.730;1.626;2023-12-04T01:54:54;99435.91;;;3.43;63.78
84108;BME280;74203;50.730;1.626;2023-12-04T01:57:04;99433.22;;;3.43;63.64
84108;BME280;74203;50.730;1.626;2023-12-04T01:59:13;99427.34;;;3.48;63.53
84108;BME280;74203;50.730;1.626;2023-12-04T02:01:22;99426.78;;;3.38;63.45
84108;BME280;74203;50.730;1.626;2023-12-04T02:03:30;99429.72;;;3.43;63.19
84108;BME280;74203;50.730;1.626;2023-12-04T02:05:39;99423.66;;;3.49;63.29
84108;BME280;74203;50.730;1.626;2023-12-04T02:07:47;99419.34;;;3.48;62.43
84108;BME280;74203;50.730;1.626;2023-12-04T02:09:55;99413.72;;;3.43;63.30
84108;BME280;74203;50.730;1.626;2023-12-04T02:12:04;99408.66;;;3.48;62.54
84108;BME280;74203;50.730;1.626;2023-12-04T02:14:12;99394.78;;;3.38;62.70
84108;BME280;74203;50.730;1.626;2023-12-04T02:16:21;99399.37;;;3.44;62.67
84108;BME280;74203;50.730;1.626;2023-12-04T02:18:30;99391.56;;;3.42;62.46
84108;BME280;74203;50.730;1.626;2023-12-04T02:20:38;99386.22;;;3.42;62.19
84108;BME280;74203;50.730;1.626;2023-12-04T02:22:46;99379.16;;;3.35;61.67
84108;BME280;74203;50.730;1.626;2023-12-04T02:24:54;99392.78;;;3.40;62.45
84108;BME280;74203;50.730;1.626;2023-12-04T02:27:09;99396.97;;;3.49;61.86
84108;BME280;74203;50.730;1.626;2023-12-04T02:29:26;99385.78;;;3.39;62.20
84108;BME280;74203;50.730;1.626;2023-12-04T02:31:37;99391.47;;;3.36;62.34
84108;BME280;74203;50.730;1.626;2023-12-04T02:33:48;99387.03;;;3.43;61.47
84108;BME280;74203;50.730;1.626;2023-12-04T02:36:01;99376.37;;;3.43;61.83
84108;BME280;74203;50.730;1.626;2023-12-04T02:38:10;99379.12;;;3.49;61.40
84108;BME280;74203;50.730;1.626;2023-12-04T02:40:19;99374.25;;;3.53;62.12
84108;BME280;74203;50.730;1.626;2023-12-04T02:42:27;99368.66;;;3.48;62.13
84108;BME280;74203;50.730;1.626;2023-12-04T02:44:35;99356.75;;;3.50;61.52
84108;BME280;74203;50.730;1.626;2023-12-04T02:46:42;99361.09;;;3.51;62.04
84108;BME280;74203;50.730;1.626;2023-12-04T02:48:50;99362.50;;;3.47;61.06
84108;BME280;74203;50.730;1.626;2023-12-04T02:50:57;99359.25;;;3.52;61.65
84108;BME280;74203;50.730;1.626;2023-12-04T02:53:05;99348.19;;;3.55;61.34
84108;BME280;74203;50.730;1.626;2023-12-04T02:55:12;99355.81;;;3.58;61.82
84108;BME280;74203;50.730;1.626;2023-12-04T02:57:20;99331.44;;;3.61;61.61
84108;BME280;74203;50.730;1.626;2023-12-04T02:59:27;99343.31;;;3.59;61.64
84108;BME280;74203;50.730;1.626;2023-12-04T03:01:35;99332.63;;;3.59;62.89
84108;BME280;74203;50.730;1.626;2023-12-04T03:03:42;99331.56;;;3.53;62.66
84108;BME280;74203;50.730;1.626;2023-12-04T03:05:50;99320.84;;;3.68;62.61
84108;BME280;74203;50.730;1.626;2023-12-04T03:07:57;99322.63;;;3.61;62.57
84108;BME280;74203;50.730;1.626;2023-12-04T03:10:05;99319.47;;;3.57;63.26
84108;BME280;74203;50.730;1.626;2023-12-04T03:12:13;99324.69;;;3.65;64.20
84108;BME280;74203;50.730;1.626;2023-12-04T03:14:21;99314.91;;;3.51;65.53
84108;BME280;74203;50.730;1.626;2023-12-04T03:16:28;99311.88;;;3.54;66.67
84108;BME280;74203;50.730;1.626;2023-12-04T03:18:38;99303.19;;;3.52;68.00
84108;BME280;74203;50.730;1.626;2023-12-04T03:20:46;99297.94;;;3.59;68.59
84108;BME280;74203;50.730;1.626;2023-12-04T03:22:53;99304.28;;;3.58;69.40
84108;BME280;74203;50.730;1.626;2023-12-04T03:25:00;99297.16;;;3.43;69.83
84108;BME280;74203;50.730;1.626;2023-12-04T03:27:08;99290.50;;;3.33;71.80
84108;BME280;74203;50.730;1.626;2023-12-04T03:29:16;99298.22;;;3.27;72.45
84108;BME280;74203;50.730;1.626;2023-12-04T03:31:23;99294.66;;;3.20;72.71
84108;BME280;74203;50.730;1.626;2023-12-04T03:33:31;99287.75;;;3.11;72.68
84108;BME280;74203;50.730;1.626;2023-12-04T03:35:39;99286.38;;;3.15;73.30
84108;BME280;74203;50.730;1.626;2023-12-04T03:37:46;99277.47;;;3.08;72.55
84108;BME280;74203;50.730;1.626;2023-12-04T03:39:54;99271.22;;;3.01;73.75
84108;BME280;74203;50.730;1.626;2023-12-04T03:42:01;99278.59;;;2.99;73.33
84108;BME280;74203;50.730;1.626;2023-12-04T03:44:09;99264.25;;;3.00;73.11
84108;BME280;74203;50.730;1.626;2023-12-04T03:46:17;99259.53;;;3.02;73.34
84108;BME280;74203;50.730;1.626;2023-12-04T03:48:24;99267.53;;;3.02;74.30
84108;BME280;74203;50.730;1.626;2023-12-04T03:50:32;99261.31;;;2.95;74.24
84108;BME280;74203;50.730;1.626;2023-12-04T03:52:39;99257.25;;;2.99;75.12
84108;BME280;74203;50.730;1.626;2023-12-04T03:54:46;99253.94;;;2.97;76.24
84108;BME280;74203;50.730;1.626;2023-12-04T03:56:54;99248.69;;;3.04;75.43
84108;BME280;74203;50.730;1.626;2023-12-04T03:59:02;99239.31;;;3.08;74.96
84108;BME280;74203;50.730;1.626;2023-12-04T04:01:09;99233.16;;;3.07;75.97
84108;BME280;74203;50.730;1.626;2023-12-04T04:03:17;99233.75;;;2.88;76.49
84108;BME280;74203;50.730;1.626;2023-12-04T04:05:25;99219.78;;;2.86;77.20
84108;BME280;74203;50.730;1.626;2023-12-04T04:10:39;99213.97;;;2.82;77.17
84108;BME280;74203;50.730;1.626;2023-12-04T05:57:52;98967.72;;;2.55;82.81
84108;BME280;74203;50.730;1.626;2023-12-04T06:00:02;98979.78;;;2.51;83.04
84108;BME280;74203;50.730;1.626;2023-12-04T06:02:10;98973.88;;;2.56;83.45
84108;BME280;74203;50.730;1.626;2023-12-04T06:04:20;98972.69;;;2.58;83.13
84108;BME280;74203;50.730;1.626;2023-12-04T06:06:28;98976.28;;;2.51;83.61
84108;BME280;74203;50.730;1.626;2023-12-04T06:08:35;98957.25;;;2.54;83.03
84108;BME280;74203;50.730;1.626;2023-12-04T06:10:43;98966.22;;;2.46;83.71
84108;BME280;74203;50.730;1.626;2023-12-04T06:12:50;98963.16;;;2.49;83.97
84108;BME280;74203;50.730;1.626;2023-12-04T06:14:58;98969.75;;;2.53;84.25
84108;BME280;74203;50.730;1.626;2023-12-04T06:17:06;98967.72;;;2.55;84.67
84108;BME280;74203;50.730;1.626;2023-12-04T06:19:13;98945.00;;;2.81;83.79
84108;BME280;74203;50.730;1.626;2023-12-04T06:21:20;98949.81;;;2.70;83.55
84108;BME280;74203;50.730;1.626;2023-12-04T06:23:29;98945.78;;;2.53;83.89
84108;BME280;74203;50.730;1.626;2023-12-04T06:25:38;98944.56;;;2.56;84.12
84108;BME280;74203;50.730;1.626;2023-12-04T06:27:47;98971.87;;;2.58;83.98
84108;BME280;74203;50.730;1.626;2023-12-04T06:29:55;98949.06;;;2.55;84.76
84108;BME280;74203;50.730;1.626;2023-12-04T06:32:05;98947.50;;;2.61;84.64
84108;BME280;74203;50.730;1.626;2023-12-04T06:34:13;98940.78;;;2.65;84.09
84108;BME280;74203;50.730;1.626;2023-12-04T06:36:23;98939.50;;;2.61;84.15
84108;BME280;74203;50.730;1.626;2023-12-04T06:38:35;98949.34;;;2.60;84.94
84108;BME280;74203;50.730;1.626;2023-12-04T06:40:47;98946.16;;;2.71;84.02
84108;BME280;74203;50.730;1.626;2023-12-04T06:42:56;98950.09;;;2.54;85.34
84108;BME280;74203;50.730;1.626;2023-12-04T06:45:05;98946.75;;;2.45;85.50
84108;BME280;74203;50.730;1.626;2023-12-04T06:47:14;98936.78;;;2.54;85.26
84108;BME280;74203;50.730;1.626;2023-12-04T06:49:26;98927.72;;;2.77;84.93
84108;BME280;74203;50.730;1.626;2023-12-04T06:51:36;98934.22;;;2.67;84.89
84108;BME280;74203;50.730;1.626;2023-12-04T06:53:44;98930.81;;;2.52;85.50
84108;BME280;74203;50.730;1.626;2023-12-04T06:55:51;98925.72;;;2.79;85.02
84108;BME280;74203;50.730;1.626;2023-12-04T06:57:59;98933.00;;;2.70;85.13
84108;BME280;74203;50.730;1.626;2023-12-04T07:00:08;98915.81;;;2.72;84.98
84108;BME280;74203;50.730;1.626;2023-12-04T07:02:16;98934.84;;;2.69;85.55
84108;BME280;74203;50.730;1.626;2023-12-04T07:04:23;98921.47;;;2.63;85.84
84108;BME280;74203;50.730;1.626;2023-12-04T07:06:31;98914.06;;;2.58;86.02
84108;BME280;74203;50.730;1.626;2023-12-04T07:08:38;98932.53;;;2.60;86.25
84108;BME280;74203;50.730;1.626;2023-12-04T07:10:46;98922.56;;;2.47;85.99
84108;BME280;74203;50.730;1.626;2023-12-04T07:12:53;98919.63;;;2.85;85.38
84108;BME280;74203;50.730;1.626;2023-12-04T07:15:01;98917.41;;;2.67;85.53
84108;BME280;74203;50.730;1.626;2023-12-04T07:17:08;98916.13;;;2.63;86.17
84108;BME280;74203;50.730;1.626;2023-12-04T07:19:16;98924.34;;;2.61;85.95
84108;BME280;74203;50.730;1.626;2023-12-04T07:21:24;98907.06;;;2.57;85.82
84108;BME280;74203;50.730;1.626;2023-12-04T07:23:31;98900.31;;;2.83;85.53
84108;BME280;74203;50.730;1.626;2023-12-04T07:25:39;98902.34;;;2.81;85.48
84108;BME280;74203;50.730;1.626;2023-12-04T07:27:46;98899.06;;;2.79;85.71
84108;BME280;74203;50.730;1.626;2023-12-04T07:29:54;98907.19;;;2.70;85.94
84108;BME280;74203;50.730;1.626;2023-12-04T07:32:01;98889.31;;;2.92;85.20
84108;BME280;74203;50.730;1.626;2023-12-04T07:34:09;98893.75;;;2.79;85.72
84108;BME280;74203;50.730;1.626;2023-12-04T07:36:16;98889.38;;;2.99;85.67
84108;BME280;74203;50.730;1.626;2023-12-04T07:38:24;98899.97;;;2.92;85.70
84108;BME280;74203;50.730;1.626;2023-12-04T07:40:31;98893.50;;;3.08;85.04
84108;BME280;74203;50.730;1.626;2023-12-04T07:42:38;98885.97;;;2.84;86.13
84108;BME280;74203;50.730;1.626;2023-12-04T07:44:46;98877.00;;;2.63;86.59
84108;BME280;74203;50.730;1.626;2023-12-04T07:46:53;98887.22;;;2.88;87.03
84108;BME280;74203;50.730;1.626;2023-12-04T07:49:01;98873.53;;;2.97;86.18
84108;BME280;74203;50.730;1.626;2023-12-04T07:51:09;98876.66;;;3.01;86.03
84108;BME280;74203;50.730;1.626;2023-12-04T07:53:17;98875.34;;;3.25;85.15
84108;BME280;74203;50.730;1.626;2023-12-04T07:55:24;98869.53;;;3.08;85.57
84108;BME280;74203;50.730;1.626;2023-12-04T07:57:32;98870.06;;;2.97;85.95
84108;BME280;74203;50.730;1.626;2023-12-04T07:59:39;98877.03;;;2.98;85.83
84108;BME280;74203;50.730;1.626;2023-12-04T08:01:47;98879.91;;;2.96;86.17
84108;BME280;74203;50.730;1.626;2023-12-04T08:03:55;98861.47;;;3.01;85.93
84108;BME280;74203;50.730;1.626;2023-12-04T08:06:02;98865.22;;;3.07;86.05
84108;BME280;74203;50.730;1.626;2023-12-04T08:08:10;98865.59;;;3.04;86.00
84108;BME280;74203;50.730;1.626;2023-12-04T08:10:17;98861.44;;;2.95;85.99
84108;BME280;74203;50.730;1.626;2023-12-04T08:12:25;98867.31;;;3.18;85.38
84108;BME280;74203;50.730;1.626;2023-12-04T08:14:32;98870.47;;;2.94;86.11
84108;BME280;74203;50.730;1.626;2023-12-04T08:16:39;98868.91;;;3.06;86.23
84108;BME280;74203;50.730;1.626;2023-12-04T08:18:47;98858.37;;;3.33;85.27
84108;BME280;74203;50.730;1.626;2023-12-04T08:20:54;98866.53;;;3.24;84.95
84108;BME280;74203;50.730;1.626;2023-12-04T08:23:02;98858.69;;;3.16;85.63
84108;BME280;74203;50.730;1.626;2023-12-04T08:25:10;98854.62;;;3.20;85.37
84108;BME280;74203;50.730;1.626;2023-12-04T08:27:18;98860.03;;;3.34;85.34
84108;BME280;74203;50.730;1.626;2023-12-04T08:29:25;98849.19;;;3.42;85.03
84108;BME280;74203;50.730;1.626;2023-12-04T08:31:33;98843.50;;;3.17;85.54
84108;BME280;74203;50.730;1.626;2023-12-04T08:33:40;98849.34;;;3.34;85.13
84108;BME280;74203;50.730;1.626;2023-12-04T08:35:48;98858.47;;;3.52;84.46
84108;BME280;74203;50.730;1.626;2023-12-04T08:37:55;98848.19;;;3.56;83.89
84108;BME280;74203;50.730;1.626;2023-12-04T08:40:03;98846.03;;;3.32;84.95
84108;BME280;74203;50.730;1.626;2023-12-04T08:42:11;98836.59;;;3.29;85.18
84108;BME280;74203;50.730;1.626;2023-12-04T08:44:18;98845.69;;;3.41;84.64
84108;BME280;74203;50.730;1.626;2023-12-04T08:46:26;98837.94;;;3.53;84.16
84108;BME280;74203;50.730;1.626;2023-12-04T08:48:33;98846.78;;;3.60;83.85
84108;BME280;74203;50.730;1.626;2023-12-04T08:50:41;98847.81;;;3.59;83.28
84108;BME280;74203;50.730;1.626;2023-12-04T08:52:48;98837.94;;;3.53;83.78
84108;BME280;74203;50.730;1.626;2023-12-04T08:54:56;98824.09;;;3.36;84.39
84108;BME280;74203;50.730;1.626;2023-12-04T08:57:03;98830.94;;;3.52;84.20
84108;BME280;74203;50.730;1.626;2023-12-04T08:59:11;98822.53;;;3.55;84.10
84108;BME280;74203;50.730;1.626;2023-12-04T09:01:18;98810.47;;;3.59;83.43
84108;BME280;74203;50.730;1.626;2023-12-04T09:03:26;98811.25;;;3.53;83.47
84108;BME280;74203;50.730;1.626;2023-12-04T09:05:33;98806.38;;;3.76;82.96
84108;BME280;74203;50.730;1.626;2023-12-04T09:07:41;98810.66;;;3.71;83.42
84108;BME280;74203;50.730;1.626;2023-12-04T09:09:48;98794.84;;;3.63;83.31
84108;BME280;74203;50.730;1.626;2023-12-04T09:11:56;98792.41;;;3.68;83.83
84108;BME280;74203;50.730;1.626;2023-12-04T09:14:03;98791.19;;;3.83;83.30
84108;BME280;74203;50.730;1.626;2023-12-04T09:16:11;98790.16;;;3.84;83.46
84108;BME280;74203;50.730;1.626;2023-12-04T09:18:19;98780.13;;;4.00;82.59
84108;BME280;74203;50.730;1.626;2023-12-04T09:20:26;98780.13;;;3.87;83.22
84108;BME280;74203;50.730;1.626;2023-12-04T09:22:34;98784.62;;;3.93;83.34
84108;BME280;74203;50.730;1.626;2023-12-04T09:24:41;98797.37;;;4.04;83.05
84108;BME280;74203;50.730;1.626;2023-12-04T09:26:48;98784.25;;;4.09;82.82
84108;BME280;74203;50.730;1.626;2023-12-04T09:28:56;98783.44;;;4.08;82.78
84108;BME280;74203;50.730;1.626;2023-12-04T09:31:04;98773.97;;;4.19;82.57
84108;BME280;74203;50.730;1.626;2023-12-04T09:33:11;98780.53;;;4.10;82.43
84108;BME280;74203;50.730;1.626;2023-12-04T09:35:19;98782.19;;;4.31;82.71
84108;BME280;74203;50.730;1.626;2023-12-04T09:37:26;98789.16;;;4.25;82.41
84108;BME280;74203;50.730;1.626;2023-12-04T09:39:34;98792.03;;;4.30;82.25
84108;BME280;74203;50.730;1.626;2023-12-04T09:41:43;98790.38;;;4.56;81.67
84108;BME280;74203;50.730;1.626;2023-12-04T09:43:54;98779.28;;;4.46;81.21
84108;BME280;74203;50.730;1.626;2023-12-04T09:46:02;98792.03;;;4.44;81.17
84108;BME280;74203;50.730;1.626;2023-12-04T09:48:10;98797.81;;;4.14;82.24
84108;BME280;74203;50.730;1.626;2023-12-04T09:50:18;98800.66;;;4.32;81.57
84108;BME280;74203;50.730;1.626;2023-12-04T09:52:26;98800.66;;;4.39;81.57
84108;BME280;74203;50.730;1.626;2023-12-04T09:54:36;98801.09;;;4.29;81.61
84108;BME280;74203;50.730;1.626;2023-12-04T09:56:44;98784.25;;;4.22;82.08
84108;BME280;74203;50.730;1.626;2023-12-04T09:58:57;98796.56;;;4.03;82.87
84108;BME280;74203;50.730;1.626;2023-12-04T10:01:06;98797.81;;;4.01;83.34
84108;BME280;74203;50.730;1.626;2023-12-04T10:03:13;98805.19;;;4.05;83.15
84108;BME280;74203;50.730;1.626;2023-12-04T10:05:22;98791.84;;;4.19;82.79
84108;BME280;74203;50.730;1.626;2023-12-04T10:07:29;98789.97;;;4.12;82.87
84108;BME280;74203;50.730;1.626;2023-12-04T10:09:36;98779.31;;;4.19;82.85
84108;BME280;74203;50.730;1.626;2023-12-04T10:11:45;98773.97;;;4.19;82.99
84108;BME280;74203;50.730;1.626;2023-12-04T10:13:54;98784.25;;;4.22;82.51
84108;BME280;74203;50.730;1.626;2023-12-04T10:16:02;98773.13;;;4.38;81.89
84108;BME280;74203;50.730;1.626;2023-12-04T10:18:27;98773.56;;;4.09;83.12
84108;BME280;74203;50.730;1.626;2023-12-04T10:20:35;98773.94;;;4.32;83.44
84108;BME280;74203;50.730;1.626;2023-12-04T10:22:56;98766.13;;;4.64;82.07
84108;BME280;74203;50.730;1.626;2023-12-04T10:25:16;98770.03;;;4.68;81.91
84108;BME280;74203;50.730;1.626;2023-12-04T10:27:28;98772.25;;;4.71;82.14
84108;BME280;74203;50.730;1.626;2023-12-04T10:29:46;98769.38;;;4.66;81.83
84108;BME280;74203;50.730;1.626;2023-12-04T10:31:54;98763.66;;;4.56;82.79
84108;BME280;74203;50.730;1.626;2023-12-04T10:34:01;98760.53;;;4.72;81.65
84108;BME280;74203;50.730;1.626;2023-12-04T10:36:14;98762.44;;;4.52;82.71
84108;BME280;74203;50.730;1.626;2023-12-04T10:38:21;98760.78;;;4.57;82.52
84108;BME280;74203;50.730;1.626;2023-12-04T10:40:31;98736.06;;;4.75;81.43
84108;BME280;74203;50.730;1.626;2023-12-04T10:42:38;98728.66;;;4.77;80.84
84108;BME280;74203;50.730;1.626;2023-12-04T10:44:46;98738.94;;;4.67;82.05
84108;BME280;74203;50.730;1.626;2023-12-04T10:46:55;98727.06;;;4.63;81.97
84108;BME280;74203;50.730;1.626;2023-12-04T10:49:06;98719.41;;;4.73;82.42
84108;BME280;74203;50.730;1.626;2023-12-04T10:51:15;98706.37;;;4.97;81.58
84108;BME280;74203;50.730;1.626;2023-12-04T10:53:23;98703.88;;;5.02;81.06
84108;BME280;74203;50.730;1.626;2023-12-04T10:55:31;98706.37;;;4.97;81.54
84108;BME280;74203;50.730;1.626;2023-12-04T10:57:41;98709.56;;;4.67;82.51
84108;BME280;74203;50.730;1.626;2023-12-04T10:59:50;98702.56;;;4.66;83.10
84108;BME280;74203;50.730;1.626;2023-12-04T11:02:04;98708.09;;;4.78;82.97
84108;BME280;74203;50.730;1.626;2023-12-04T11:04:18;98700.84;;;4.85;82.49
84108;BME280;74203;50.730;1.626;2023-12-04T11:06:28;98697.66;;;4.63;82.71
84108;BME280;74203;50.730;1.626;2023-12-04T11:08:38;98694.16;;;4.69;83.00
84108;BME280;74203;50.730;1.626;2023-12-04T11:10:53;98688.78;;;4.69;82.93
84108;BME280;74203;50.730;1.626;2023-12-04T11:13:10;98678.91;;;4.76;82.68
84108;BME280;74203;50.730;1.626;2023-12-04T11:15:21;98681.84;;;4.55;83.49
84108;BME280;74203;50.730;1.626;2023-12-04T11:17:35;98681.38;;;4.71;82.94
84108;BME280;74203;50.730;1.626;2023-12-04T11:19:52;98673.97;;;4.73;82.98
84108;BME280;74203;50.730;1.626;2023-12-04T11:22:01;98671.88;;;4.88;82.89
84108;BME280;74203;50.730;1.626;2023-12-04T11:24:10;98665.50;;;4.83;83.30
84108;BME280;74203;50.730;1.626;2023-12-04T11:26:19;98667.28;;;5.02;82.70
84108;BME280;74203;50.730;1.626;2023-12-04T11:28:28;98658.28;;;4.90;82.64
84108;BME280;74203;50.730;1.626;2023-12-04T11:30:37;98648.41;;;4.90;82.99
84108;BME280;74203;50.730;1.626;2023-12-04T11:32:51;98650.03;;;4.91;83.23
84108;BME280;74203;50.730;1.626;2023-12-04T11:35:02;98651.13;;;4.77;83.79
84108;BME280;74203;50.730;1.626;2023-12-04T11:37:11;98640.72;;;5.01;83.44
84108;BME280;74203;50.730;1.626;2023-12-04T11:39:18;98636.31;;;5.13;83.12
84108;BME280;74203;50.730;1.626;2023-12-04T11:41:27;98642.00;;;5.30;83.05
84108;BME280;74203;50.730;1.626;2023-12-04T11:43:37;98632.25;;;5.42;83.17
84108;BME280;74203;50.730;1.626;2023-12-04T11:45:44;98611.81;;;5.47;82.45
84108;BME280;74203;50.730;1.626;2023-12-04T11:47:57;98629.50;;;5.48;82.79
84108;BME280;74203;50.730;1.626;2023-12-04T11:50:07;98629.34;;;5.68;82.08
84108;BME280;74203;50.730;1.626;2023-12-04T11:52:15;98613.72;;;5.65;82.22
84108;BME280;74203;50.730;1.626;2023-12-04T11:54:26;98616.97;;;5.49;82.18
84108;BME280;74203;50.730;1.626;2023-12-04T11:56:34;98617.91;;;5.55;82.28
84108;BME280;74203;50.730;1.626;2023-12-04T11:58:46;98618.97;;;5.29;82.80
84108;BME280;74203;50.730;1.626;2023-12-04T12:00:54;98614.69;;;5.46;82.02
84108;BME280;74203;50.730;1.626;2023-12-04T12:03:07;98602.94;;;5.22;82.67
84108;BME280;74203;50.730;1.626;2023-12-04T12:05:15;98613.28;;;5.12;83.50
84108;BME280;74203;50.730;1.626;2023-12-04T12:07:23;98614.06;;;5.19;83.61
84108;BME280;74203;50.730;1.626;2023-12-04T12:09:31;98604.53;;;5.30;83.03
84108;BME280;74203;50.730;1.626;2023-12-04T12:11:40;98594.34;;;5.13;83.27
84108;BME280;74203;50.730;1.626;2023-12-04T12:13:47;98597.25;;;5.12;83.91
84108;BME280;74203;50.730;1.626;2023-12-04T12:15:55;98602.06;;;5.28;83.40
84108;BME280;74203;50.730;1.626;2023-12-04T12:18:02;98586.81;;;5.35;83.01
84108;BME280;74203;50.730;1.626;2023-12-04T12:20:15;98586.38;;;5.63;82.44
84108;BME280;74203;50.730;1.626;2023-12-04T12:22:23;98579.91;;;5.71;81.51
84108;BME280;74203;50.730;1.626;2023-12-04T12:24:30;98582.41;;;5.66;81.65
84108;BME280;74203;50.730;1.626;2023-12-04T12:26:38;98567.81;;;5.62;81.63
84108;BME280;74203;50.730;1.626;2023-12-04T12:28:45;98575.53;;;5.52;82.20
84108;BME280;74203;50.730;1.626;2023-12-04T12:30:53;98570.19;;;5.52;82.19
84108;BME280;74203;50.730;1.626;2023-12-04T12:33:00;98571.62;;;5.29;83.22
84108;BME280;74203;50.730;1.626;2023-12-04T12:35:09;98566.16;;;5.42;83.54
84108;BME280;74203;50.730;1.626;2023-12-04T12:37:17;98563.16;;;5.57;82.88
84108;BME280;74203;50.730;1.626;2023-12-04T12:39:25;98557.72;;;5.64;81.73
84108;BME280;74203;50.730;1.626;2023-12-04T12:41:33;98552.37;;;5.64;82.43
84108;BME280;74203;50.730;1.626;2023-12-04T12:43:41;98557.97;;;5.81;82.32
84108;BME280;74203;50.730;1.626;2023-12-04T12:45:49;98557.72;;;5.64;82.37
84108;BME280;74203;50.730;1.626;2023-12-04T12:47:58;98551.09;;;5.91;82.41
84108;BME280;74203;50.730;1.626;2023-12-04T12:50:09;98552.00;;;6.04;81.41
84108;BME280;74203;50.730;1.626;2023-12-04T12:52:17;98546.00;;;5.83;81.86
84108;BME280;74203;50.730;1.626;2023-12-04T12:54:28;98548.88;;;5.82;82.15
84108;BME280;74203;50.730;1.626;2023-12-04T12:56:37;98545.00;;;6.02;81.64
84108;BME280;74203;50.730;1.626;2023-12-04T12:58:45;98541.84;;;5.87;82.13
84108;BME280;74203;50.730;1.626;2023-12-04T13:00:53;98538.34;;;5.87;82.38
84108;BME280;74203;50.730;1.626;2023-12-04T13:03:01;98541.41;;;5.90;82.13
84108;BME280;74203;50.730;1.626;2023-12-04T13:05:09;98529.19;;;5.76;82.36
84108;BME280;74203;50.730;1.626;2023-12-04T13:07:16;98524.13;;;5.86;82.72
84108;BME280;74203;50.730;1.626;2023-12-04T13:09:24;98526.06;;;5.79;82.52
84108;BME280;74203;50.730;1.626;2023-12-04T13:11:31;98519.50;;;5.75;82.56
84108;BME280;74203;50.730;1.626;2023-12-04T13:13:39;98521.81;;;5.71;82.79
84108;BME280;74203;50.730;1.626;2023-12-04T13:15:47;98519.50;;;5.57;82.80
84108;BME280;74203;50.730;1.626;2023-12-04T13:17:54;98508.50;;;5.65;82.99